createdAt,value
2023-05-14T00:02:18.420Z,10.60
2023-05-14T00:04:45.838Z,10.00
2023-05-14T00:07:13.149Z,10.50
2023-05-14T00:09:40.426Z,10.50
2023-05-14T00:12:07.889Z,10.50
2023-05-14T00:14:35.335Z,10.40
2023-05-14T00:17:03.052Z,10.40
2023-05-14T00:19:30.333Z,10.50
2023-05-14T00:21:57.669Z,10.50
2023-05-14T00:24:24.933Z,10.50
2023-05-14T00:26:52.250Z,10.50
2023-05-14T00:29:19.482Z,10.50
2023-05-14T00:31:46.891Z,10.50
2023-05-14T00:34:14.211Z,10.50
2023-05-14T00:36:41.467Z,10.50
2023-05-14T00:39:08.750Z,10.50
2023-05-14T00:41:36.125Z,10.50
2023-05-14T00:44:03.423Z,10.50
2023-05-14T00:46:31.112Z,10.50
2023-05-14T00:48:58.804Z,10.40
2023-05-14T00:51:26.123Z,10.40
2023-05-14T00:53:53.941Z,10.40
2023-05-14T00:56:21.382Z,10.40
2023-05-14T00:58:48.700Z,10.40
2023-05-14T01:01:16.638Z,10.40
2023-05-14T01:03:44.284Z,10.40
2023-05-14T01:06:11.566Z,10.40
2023-05-14T01:08:38.791Z,10.40
2023-05-14T01:11:44.574Z,10.40
2023-05-14T01:14:21.615Z,10.40
2023-05-14T01:16:50.892Z,10.40
2023-05-14T01:19:22.227Z,10.40
2023-05-14T01:21:49.451Z,10.40
2023-05-14T01:24:16.686Z,10.40
2023-05-14T01:26:43.943Z,10.40
2023-05-14T01:29:15.920Z,10.40
2023-05-14T01:31:44.449Z,10.40
2023-05-14T01:34:12.674Z,10.40
2023-05-14T01:36:41.169Z,10.40
2023-05-14T01:39:11.601Z,10.40
2023-05-14T01:41:42.249Z,10.40
2023-05-14T01:44:09.606Z,10.30
2023-05-14T01:46:36.925Z,10.20
2023-05-14T01:49:04.413Z,10.20
2023-05-14T01:51:31.760Z,10.20
2023-05-14T01:53:59.148Z,10.20
2023-05-14T01:56:27.101Z,10.10
2023-05-14T01:58:55.714Z,10.20
2023-05-14T02:01:23.009Z,10.10
2023-05-14T02:03:50.372Z,10.10
2023-05-14T02:06:17.808Z,10.10
2023-05-14T02:08:45.005Z,10.10
2023-05-14T02:11:12.263Z,10.20
2023-05-14T02:13:39.602Z,10.10
2023-05-14T02:16:07.087Z,10.10
2023-05-14T02:18:34.484Z,10.10
2023-05-14T02:21:01.859Z,10.10
2023-05-14T02:23:40.479Z,10.10
2023-05-14T02:26:09.781Z,10.00
2023-05-14T02:28:37.109Z,10.00
2023-05-14T02:31:04.402Z,10.00
2023-05-14T02:33:31.708Z,10.00
2023-05-14T02:35:59.006Z,10.00
2023-05-14T02:38:26.444Z,9.90
2023-05-14T02:40:53.733Z,9.90
2023-05-14T02:43:21.109Z,9.90
2023-05-14T02:45:48.347Z,9.80
2023-05-14T02:48:15.669Z,9.80
2023-05-14T02:50:42.930Z,9.80
2023-05-14T02:53:10.300Z,9.90
2023-05-14T02:55:37.579Z,9.80
2023-05-14T02:58:04.809Z,9.80
2023-05-14T03:00:32.235Z,9.80
2023-05-14T03:03:00.067Z,9.80
2023-05-14T03:05:27.705Z,9.70
2023-05-14T03:07:54.954Z,9.70
2023-05-14T03:10:22.384Z,9.80
2023-05-14T03:12:49.853Z,9.80
2023-05-14T03:15:17.168Z,9.80
2023-05-14T03:17:44.494Z,9.80
2023-05-14T03:20:12.597Z,9.80
2023-05-14T03:22:39.920Z,9.80
2023-05-14T03:25:07.251Z,9.80
2023-05-14T03:27:34.621Z,9.80
2023-05-14T03:30:01.970Z,9.80
2023-05-14T03:32:30.194Z,9.80
2023-05-14T03:34:57.655Z,9.70
2023-05-14T03:37:24.921Z,9.80
2023-05-14T03:39:52.179Z,9.80
2023-05-14T03:42:19.455Z,9.80
2023-05-14T03:44:46.738Z,9.70
2023-05-14T03:47:14.000Z,9.70
2023-05-14T03:49:41.517Z,9.70
2023-05-14T03:52:08.797Z,9.70
2023-05-14T03:54:36.139Z,9.70
2023-05-14T03:57:03.431Z,9.70
2023-05-14T03:59:30.687Z,9.70
2023-05-14T04:01:58.218Z,9.70
2023-05-14T04:04:25.494Z,9.70
2023-05-14T04:06:52.875Z,9.70
2023-05-14T04:09:20.229Z,9.70
2023-05-14T04:11:47.511Z,9.70
2023-05-14T04:14:14.719Z,9.70
2023-05-14T04:16:42.119Z,9.70
2023-05-14T04:19:09.559Z,9.60
2023-05-14T04:21:36.815Z,9.70
2023-05-14T04:24:04.293Z,9.70
2023-05-14T04:26:31.562Z,9.70
2023-05-14T04:29:02.894Z,9.70
2023-05-14T04:31:30.438Z,9.70
2023-05-14T04:33:57.771Z,9.70
2023-05-14T04:36:25.259Z,9.70
2023-05-14T04:38:52.582Z,9.60
2023-05-14T04:41:19.896Z,9.70
2023-05-14T04:43:47.305Z,9.70
2023-05-14T04:46:15.551Z,9.70
2023-05-14T04:48:42.943Z,9.70
2023-05-14T04:51:10.355Z,9.70
2023-05-14T04:53:37.628Z,9.70
2023-05-14T04:56:04.963Z,9.70
2023-05-14T04:58:34.519Z,9.70
2023-05-14T05:01:03.264Z,9.70
2023-05-14T05:03:31.234Z,9.70
2023-05-14T05:05:58.544Z,9.70
2023-05-14T05:08:26.206Z,9.70
2023-05-14T05:10:53.455Z,9.70
2023-05-14T05:13:20.698Z,9.70
2023-05-14T05:15:47.972Z,9.70
2023-05-14T05:18:15.318Z,9.70
2023-05-14T05:20:42.748Z,9.60
2023-05-14T05:23:09.986Z,9.60
2023-05-14T05:25:37.302Z,9.60
2023-05-14T05:28:04.677Z,9.60
2023-05-14T05:30:33.438Z,9.60
2023-05-14T05:33:01.975Z,9.60
2023-05-14T05:35:29.697Z,9.60
2023-05-14T05:38:00.496Z,9.70
2023-05-14T05:40:28.796Z,9.90
2023-05-14T05:42:56.126Z,9.90
2023-05-14T05:45:23.521Z,9.80
2023-05-14T05:47:51.019Z,9.80
2023-05-14T05:50:19.884Z,9.70
2023-05-14T05:52:47.470Z,9.60
2023-05-14T05:55:16.279Z,9.60
2023-05-14T05:57:43.964Z,9.60
2023-05-14T06:00:14.663Z,9.60
2023-05-14T06:02:42.082Z,9.60
2023-05-14T06:05:10.024Z,9.60
2023-05-14T06:07:37.279Z,9.50
2023-05-14T06:10:04.994Z,9.40
2023-05-14T06:12:32.451Z,9.40
2023-05-14T06:14:59.767Z,9.30
2023-05-14T06:17:27.294Z,9.30
2023-05-14T06:19:55.788Z,9.50
2023-05-14T06:22:23.123Z,9.40
2023-05-14T06:24:51.009Z,9.40
2023-05-14T06:27:18.809Z,9.50
2023-05-14T06:29:46.106Z,9.50
2023-05-14T06:32:15.639Z,9.50
2023-05-14T06:34:43.126Z,9.40
2023-05-14T06:37:10.595Z,9.40
2023-05-14T06:39:37.861Z,9.30
2023-05-14T06:42:05.325Z,9.20
2023-05-14T06:44:32.551Z,9.10
2023-05-14T06:46:59.894Z,9.20
2023-05-14T06:49:27.225Z,9.30
2023-05-14T06:51:54.569Z,9.40
2023-05-14T06:54:21.931Z,9.40
2023-05-14T06:56:49.161Z,9.50
2023-05-14T06:59:16.408Z,9.60
2023-05-14T07:01:43.755Z,9.60
2023-05-14T07:04:11.149Z,9.50
2023-05-14T07:06:38.617Z,9.60
2023-05-14T07:09:07.078Z,9.70
2023-05-14T07:11:34.377Z,9.70
2023-05-14T07:14:01.709Z,9.90
2023-05-14T07:16:29.174Z,9.90
2023-05-14T07:18:56.711Z,9.90
2023-05-14T07:21:24.154Z,9.80
2023-05-14T07:23:51.400Z,9.90
2023-05-14T07:26:18.766Z,9.90
2023-05-14T07:28:46.117Z,10.00
2023-05-14T07:31:13.407Z,10.20
2023-05-14T07:33:40.648Z,10.20
2023-05-14T07:36:08.119Z,10.30
2023-05-14T07:38:35.642Z,10.20
2023-05-14T07:41:02.980Z,10.20
2023-05-14T07:43:31.249Z,10.10
2023-05-14T07:45:58.867Z,10.10
2023-05-14T07:48:26.475Z,10.20
2023-05-14T07:50:53.865Z,10.20
2023-05-14T07:53:22.013Z,10.30
2023-05-14T07:55:49.417Z,10.50
2023-05-14T07:58:16.750Z,10.60
2023-05-14T08:00:44.057Z,10.60
2023-05-14T08:03:11.412Z,10.60
2023-05-14T08:05:38.786Z,10.60
2023-05-14T08:08:06.625Z,10.50
2023-05-14T08:10:34.034Z,10.50
2023-05-14T08:13:01.406Z,10.40
2023-05-14T08:15:28.923Z,10.20
2023-05-14T08:17:56.340Z,10.30
2023-05-14T08:20:24.224Z,10.40
2023-05-14T08:22:51.688Z,10.60
2023-05-14T08:25:18.937Z,10.70
2023-05-14T08:27:46.302Z,10.90
2023-05-14T08:30:13.738Z,10.90
2023-05-14T08:32:41.273Z,11.00
2023-05-14T08:35:08.840Z,11.00
2023-05-14T08:37:36.200Z,11.10
2023-05-14T08:40:03.579Z,11.20
2023-05-14T08:42:31.365Z,11.30
2023-05-14T08:45:02.222Z,11.40
2023-05-14T08:47:30.762Z,11.40
2023-05-14T08:50:06.467Z,11.40
2023-05-14T08:52:34.359Z,11.40
2023-05-14T08:55:04.172Z,11.40
2023-05-14T08:57:32.459Z,11.20
2023-05-14T09:00:00.219Z,11.20
2023-05-14T09:02:31.748Z,11.30
2023-05-14T09:05:00.341Z,11.50
2023-05-14T09:07:28.083Z,11.70
2023-05-14T09:09:55.812Z,11.80
2023-05-14T09:12:23.238Z,11.90
2023-05-14T09:14:50.703Z,11.80
2023-05-14T09:17:18.635Z,11.80
2023-05-14T09:19:49.327Z,11.90
2023-05-14T09:22:17.266Z,12.10
2023-05-14T09:24:44.936Z,12.30
2023-05-14T09:27:18.620Z,12.50
2023-05-14T09:29:45.855Z,12.70
2023-05-14T09:32:13.163Z,12.80
2023-05-14T09:34:40.597Z,12.80
2023-05-14T09:37:08.812Z,12.80
2023-05-14T09:39:37.257Z,12.70
2023-05-14T09:42:04.785Z,12.60
2023-05-14T09:44:32.114Z,12.60
2023-05-14T09:46:59.616Z,12.50
2023-05-14T09:49:26.914Z,12.50
2023-05-14T09:51:54.228Z,12.50
2023-05-14T09:54:21.500Z,12.30
2023-05-14T09:56:48.744Z,12.40
2023-05-14T09:59:16.068Z,12.50
2023-05-14T10:01:44.215Z,12.60
2023-05-14T10:04:12.485Z,12.70
2023-05-14T10:06:40.248Z,12.90
2023-05-14T10:09:12.466Z,12.90
2023-05-14T10:11:42.305Z,12.90
2023-05-14T10:14:26.673Z,12.90
2023-05-14T10:16:55.733Z,13.00
2023-05-14T10:19:24.605Z,13.20
2023-05-14T10:22:01.775Z,13.40
2023-05-14T10:24:29.593Z,13.40
2023-05-14T10:26:58.713Z,13.40
2023-05-14T10:29:36.002Z,13.60
2023-05-14T10:32:07.918Z,13.80
2023-05-14T10:34:40.981Z,14.00
2023-05-14T10:37:09.642Z,14.20
2023-05-14T10:39:57.213Z,14.40
2023-05-14T10:42:27.101Z,14.40
2023-05-14T10:44:57.058Z,14.50
2023-05-14T10:47:28.162Z,14.60
2023-05-14T10:49:56.722Z,14.80
2023-05-14T10:52:24.371Z,15.00
2023-05-14T10:54:56.343Z,14.90
2023-05-14T10:57:26.129Z,15.00
2023-05-14T10:59:55.008Z,15.10
2023-05-14T11:02:25.407Z,15.20
2023-05-14T11:04:53.507Z,15.40
2023-05-14T11:07:24.965Z,15.70
2023-05-14T11:09:52.659Z,15.80
2023-05-14T11:12:21.203Z,16.30
2023-05-14T11:14:48.604Z,16.80
2023-05-14T11:17:16.290Z,17.20
2023-05-14T11:19:44.808Z,17.30
2023-05-14T11:22:14.845Z,17.50
2023-05-14T11:24:42.173Z,17.30
2023-05-14T11:27:10.527Z,17.30
2023-05-14T11:29:38.237Z,17.50
2023-05-14T11:32:06.325Z,17.60
2023-05-14T11:34:34.733Z,17.70
2023-05-14T11:37:06.432Z,17.30
2023-05-14T11:39:34.462Z,17.20
2023-05-14T11:42:05.823Z,17.20
2023-05-14T11:44:33.069Z,17.50
2023-05-14T11:47:02.048Z,18.10
2023-05-14T11:49:29.443Z,18.20
2023-05-14T11:51:57.442Z,18.00
2023-05-14T11:54:28.349Z,17.90
2023-05-14T11:56:56.437Z,17.70
2023-05-14T11:59:31.716Z,17.80
2023-05-14T12:01:59.216Z,18.30
2023-05-14T12:04:26.567Z,19.20
2023-05-14T12:06:54.074Z,19.60
2023-05-14T12:09:21.912Z,20.00
2023-05-14T12:11:50.744Z,20.20
2023-05-14T12:14:22.160Z,20.20
2023-05-14T12:16:50.307Z,20.10
2023-05-14T12:19:18.897Z,19.60
2023-05-14T12:21:47.493Z,20.10
2023-05-14T12:24:16.890Z,20.20
2023-05-14T12:26:44.632Z,20.70
2023-05-14T12:29:12.828Z,20.60
2023-05-14T12:31:50.188Z,20.70
2023-05-14T12:34:17.584Z,20.50
2023-05-14T12:36:44.964Z,20.50
2023-05-14T12:39:12.325Z,20.80
2023-05-14T12:41:40.051Z,20.80
2023-05-14T12:44:07.332Z,20.90
2023-05-14T12:46:34.691Z,21.20
2023-05-14T12:49:02.175Z,21.20
2023-05-14T12:51:29.914Z,21.40
2023-05-14T12:53:57.245Z,21.50
2023-05-14T12:56:28.240Z,21.40
2023-05-14T12:58:56.421Z,21.40
2023-05-14T13:01:24.068Z,22.00
2023-05-14T13:03:51.417Z,21.90
2023-05-14T13:06:18.739Z,21.80
2023-05-14T13:08:46.161Z,21.60
2023-05-14T13:11:13.490Z,21.70
2023-05-14T13:13:41.140Z,22.30
2023-05-14T13:16:08.487Z,22.30
2023-05-14T13:18:37.848Z,22.40
2023-05-14T13:21:06.408Z,22.40
2023-05-14T13:23:33.819Z,22.30
2023-05-14T13:26:01.207Z,22.20
2023-05-14T13:28:28.502Z,22.00
2023-05-14T13:31:08.897Z,22.10
2023-05-14T13:33:36.888Z,21.90
2023-05-14T13:36:04.573Z,22.00
2023-05-14T13:38:31.995Z,22.00
2023-05-14T13:41:02.498Z,22.40
2023-05-14T13:43:33.614Z,22.80
2023-05-14T13:46:01.438Z,22.90
2023-05-14T13:48:28.840Z,22.90
2023-05-14T13:50:56.209Z,22.90
2023-05-14T13:53:23.930Z,23.00
2023-05-14T13:55:56.293Z,23.20
2023-05-14T13:58:24.686Z,23.30
2023-05-14T14:00:52.583Z,22.90
2023-05-14T14:03:20.192Z,23.00
2023-05-14T14:05:47.822Z,22.90
2023-05-14T14:08:23.223Z,23.00
2023-05-14T14:10:52.040Z,22.80
2023-05-14T14:13:21.224Z,23.30
2023-05-14T14:15:48.609Z,22.60
2023-05-14T14:18:15.865Z,22.70
2023-05-14T14:20:43.069Z,22.70
2023-05-14T14:23:10.280Z,22.70
2023-05-14T14:25:37.618Z,22.90
2023-05-14T14:28:04.986Z,22.70
2023-05-14T14:30:32.642Z,22.20
2023-05-14T14:33:01.368Z,21.80
2023-05-14T14:35:30.656Z,21.50
2023-05-14T14:37:57.950Z,21.20
2023-05-14T14:40:26.393Z,21.20
2023-05-14T14:42:53.742Z,21.00
2023-05-14T14:45:21.390Z,20.80
2023-05-14T14:47:48.908Z,20.80
2023-05-14T14:50:16.184Z,20.70
2023-05-14T14:52:45.798Z,20.60
2023-05-14T14:55:13.436Z,20.70
2023-05-14T14:57:40.702Z,20.70
2023-05-14T15:00:09.287Z,20.60
2023-05-14T15:02:38.562Z,20.60
2023-05-14T15:05:06.132Z,20.60
2023-05-14T15:07:33.458Z,20.50
2023-05-14T15:10:00.791Z,20.40
2023-05-14T15:12:28.067Z,20.30
2023-05-14T15:14:55.418Z,20.20
2023-05-14T15:17:24.155Z,20.20
2023-05-14T15:19:51.387Z,20.30
2023-05-14T15:22:18.730Z,20.30
2023-05-14T15:24:45.984Z,20.40
2023-05-14T15:27:13.231Z,20.50
2023-05-14T15:29:41.402Z,20.50
2023-05-14T15:32:08.710Z,20.50
2023-05-14T15:34:36.010Z,20.50
2023-05-14T15:37:03.317Z,20.50
2023-05-14T15:39:31.511Z,20.60
2023-05-14T15:41:58.920Z,20.60
2023-05-14T15:44:26.526Z,20.90
2023-05-14T15:46:53.908Z,21.00
2023-05-14T15:49:21.521Z,20.80
2023-05-14T15:51:48.992Z,20.80
2023-05-14T15:54:16.271Z,20.90
2023-05-14T15:56:43.563Z,20.90
2023-05-14T15:59:10.820Z,20.90
2023-05-14T16:01:38.103Z,20.80
2023-05-14T16:04:05.652Z,20.70
2023-05-14T16:06:34.005Z,20.60
2023-05-14T16:09:15.669Z,20.50
2023-05-14T16:11:43.606Z,20.50
2023-05-14T16:14:10.917Z,20.60
2023-05-14T16:16:38.370Z,20.60
2023-05-14T16:19:05.823Z,20.60
2023-05-14T16:21:34.236Z,20.70
2023-05-14T16:24:01.557Z,20.70
2023-05-14T16:26:28.837Z,20.70
2023-05-14T16:28:56.061Z,20.70
2023-05-14T16:31:25.226Z,20.70
2023-05-14T16:33:53.081Z,20.60
2023-05-14T16:36:20.300Z,20.50
2023-05-14T16:39:06.212Z,20.50
2023-05-14T16:41:35.523Z,20.50
2023-05-14T16:44:03.384Z,20.40
2023-05-14T16:46:31.247Z,20.30
2023-05-14T16:48:58.715Z,20.40
2023-05-14T16:51:26.039Z,20.40
2023-05-14T16:53:55.450Z,20.40
2023-05-14T16:56:23.160Z,20.40
2023-05-14T16:58:50.569Z,20.40
2023-05-14T17:01:18.724Z,20.40
2023-05-14T17:03:46.590Z,20.40
2023-05-14T17:06:13.853Z,20.40
2023-05-14T17:08:41.199Z,20.40
2023-05-14T17:11:08.421Z,20.40
2023-05-14T17:13:35.722Z,20.40
2023-05-14T17:16:03.142Z,20.30
2023-05-14T17:18:30.684Z,20.30
2023-05-14T17:20:58.074Z,20.30
2023-05-14T17:23:25.399Z,20.30
2023-05-14T17:25:52.680Z,20.20
2023-05-14T17:28:19.939Z,20.20
2023-05-14T17:30:47.218Z,20.10
2023-05-14T17:33:14.721Z,20.10
2023-05-14T17:35:43.818Z,20.00
2023-05-14T17:38:11.189Z,20.00
2023-05-14T17:40:39.949Z,19.90
2023-05-14T17:43:08.528Z,19.90
2023-05-14T17:45:46.284Z,19.80
2023-05-14T17:48:21.046Z,19.80
2023-05-14T17:50:48.452Z,19.80
2023-05-14T17:53:15.858Z,19.80
2023-05-14T17:55:43.763Z,19.80
2023-05-14T17:58:13.330Z,19.80
2023-05-14T18:00:40.927Z,19.80
2023-05-14T18:03:08.526Z,19.80
2023-05-14T18:05:36.227Z,19.80
2023-05-14T18:08:03.786Z,19.80
2023-05-14T18:10:31.284Z,19.80
2023-05-14T18:12:58.813Z,19.70
2023-05-14T18:15:27.433Z,19.70
2023-05-14T18:17:55.181Z,19.60
2023-05-14T18:20:22.966Z,19.60
2023-05-14T18:22:51.466Z,19.50
2023-05-14T18:25:19.322Z,19.50
2023-05-14T18:27:47.091Z,19.50
2023-05-14T18:30:15.397Z,19.50
2023-05-14T18:32:44.491Z,19.50
2023-05-14T18:35:12.917Z,19.50
2023-05-14T18:37:41.124Z,19.50
2023-05-14T18:40:09.771Z,19.40
2023-05-14T18:42:37.632Z,19.40
2023-05-14T18:45:05.479Z,19.40
2023-05-14T18:47:33.562Z,19.40
2023-05-14T18:50:02.120Z,19.40
2023-05-14T18:52:29.972Z,19.30
2023-05-14T18:54:57.309Z,19.30
2023-05-14T18:57:26.898Z,19.20
2023-05-14T18:59:54.245Z,19.20
2023-05-14T19:02:21.816Z,19.20
2023-05-14T19:04:52.325Z,19.20
2023-05-14T19:07:20.811Z,19.10
2023-05-14T19:09:48.572Z,19.00
2023-05-14T19:12:16.169Z,19.00
2023-05-14T19:14:43.782Z,18.90
2023-05-14T19:17:11.361Z,18.80
2023-05-14T19:19:39.536Z,18.80
2023-05-14T19:22:07.439Z,18.80
2023-05-14T19:24:35.067Z,18.80
2023-05-14T19:27:02.793Z,18.70
2023-05-14T19:29:32.408Z,18.60
2023-05-14T19:32:00.529Z,18.60
2023-05-14T19:34:27.917Z,18.50
2023-05-14T19:36:55.523Z,18.50
2023-05-14T19:39:23.414Z,18.50
2023-05-14T19:41:50.988Z,18.40
2023-05-14T19:44:18.272Z,18.30
2023-05-14T19:46:45.904Z,18.30
2023-05-14T19:49:13.710Z,18.30
2023-05-14T19:51:41.125Z,18.30
2023-05-14T19:54:10.781Z,18.30
2023-05-14T19:56:38.419Z,18.20
2023-05-14T19:59:05.663Z,18.20
2023-05-14T20:01:34.226Z,18.10
2023-05-14T20:04:02.262Z,18.10
2023-05-14T20:06:29.656Z,18.10
2023-05-14T20:08:56.898Z,18.00
2023-05-14T20:11:24.166Z,18.00
2023-05-14T20:13:51.524Z,18.00
2023-05-14T20:16:18.965Z,18.00
2023-05-14T20:18:46.435Z,17.90
2023-05-14T20:21:13.731Z,17.90
2023-05-14T20:23:41.142Z,17.90
2023-05-14T20:26:08.402Z,17.80
2023-05-14T20:28:35.864Z,17.80
2023-05-14T20:31:04.053Z,17.80
2023-05-14T20:33:31.411Z,17.80
2023-05-14T20:35:58.734Z,17.70
2023-05-14T20:38:29.204Z,17.70
2023-05-14T20:40:56.955Z,17.60
2023-05-14T20:43:24.202Z,17.60
2023-05-14T20:45:51.534Z,17.70
2023-05-14T20:48:21.194Z,17.70
2023-05-14T20:50:48.475Z,17.70
2023-05-14T20:53:15.854Z,17.60
2023-05-14T20:55:44.656Z,17.60
2023-05-14T20:58:12.411Z,17.60
2023-05-14T21:00:40.052Z,17.60
2023-05-14T21:03:07.514Z,17.50
2023-05-14T21:05:35.516Z,17.40
2023-05-14T21:08:03.170Z,17.30
2023-05-14T21:10:30.518Z,17.30
2023-05-14T21:12:57.818Z,17.30
2023-05-14T21:15:26.920Z,17.20
2023-05-14T21:17:54.579Z,17.20
2023-05-14T21:20:22.227Z,17.20
2023-05-14T21:22:49.705Z,17.20
2023-05-14T21:25:17.114Z,17.20
2023-05-14T21:27:44.570Z,17.10
2023-05-14T21:30:12.213Z,17.10
2023-05-14T21:32:39.675Z,17.00
2023-05-14T21:35:07.200Z,17.00
2023-05-14T21:37:34.538Z,16.90
2023-05-14T21:40:02.158Z,16.90
2023-05-14T21:42:29.419Z,16.80
2023-05-14T21:44:56.679Z,16.80
2023-05-14T21:47:24.109Z,16.80
2023-05-14T21:49:51.514Z,16.70
2023-05-14T21:52:18.832Z,16.70
2023-05-14T21:54:46.155Z,16.70
2023-05-14T21:57:13.800Z,16.70
2023-05-14T21:59:41.144Z,16.60
2023-05-14T22:02:08.444Z,16.60
2023-05-14T22:04:36.109Z,16.60
2023-05-14T22:07:03.790Z,16.60
2023-05-14T22:09:31.359Z,16.60
2023-05-14T22:11:58.631Z,16.60
2023-05-14T22:14:27.339Z,16.50
2023-05-14T22:16:54.908Z,16.50
2023-05-14T22:19:22.617Z,16.50
2023-05-14T22:21:49.937Z,16.50
2023-05-14T22:24:17.254Z,16.50
2023-05-14T22:26:44.506Z,16.50
2023-05-14T22:29:11.757Z,16.50
2023-05-14T22:31:39.088Z,16.50
2023-05-14T22:34:06.449Z,16.50
2023-05-14T22:36:33.753Z,16.40
2023-05-14T22:39:00.995Z,16.40
2023-05-14T22:41:28.302Z,16.40
2023-05-14T22:43:55.710Z,16.40
2023-05-14T22:46:23.163Z,16.30
2023-05-14T22:48:50.476Z,16.30
2023-05-14T22:51:17.965Z,16.30
2023-05-14T22:53:45.588Z,16.30
2023-05-14T22:56:13.101Z,16.20
2023-05-14T22:58:40.446Z,16.20
2023-05-14T23:01:07.698Z,16.20
2023-05-14T23:03:35.056Z,16.20
2023-05-14T23:06:02.404Z,16.20
2023-05-14T23:08:29.755Z,16.20
2023-05-14T23:10:57.045Z,16.20
2023-05-14T23:13:24.891Z,16.10
2023-05-14T23:15:52.153Z,16.10
2023-05-14T23:18:19.531Z,16.10
2023-05-14T23:20:47.081Z,16.00
2023-05-14T23:23:14.793Z,16.00
2023-05-14T23:25:42.201Z,16.00
2023-05-14T23:28:09.734Z,15.90
2023-05-14T23:30:36.980Z,15.90
2023-05-14T23:33:05.064Z,15.90
2023-05-14T23:35:32.446Z,15.90
2023-05-14T23:37:59.816Z,15.90
2023-05-14T23:40:27.072Z,15.80
2023-05-14T23:42:54.363Z,15.80
2023-05-14T23:45:21.615Z,15.80
2023-05-14T23:47:48.993Z,15.80
2023-05-14T23:50:17.050Z,15.80
2023-05-14T23:52:44.303Z,15.80
2023-05-14T23:55:11.574Z,15.70
2023-05-14T23:57:39.772Z,15.70
